Time;durP1;ratioP1;P1;durP2;ratioP2;P2;SDS_P1;SDS_P2;PMS_P1;PMS_P2;Temp;Humidity;BMP_temperature;BMP_pressure;BME280_temperature;BME280_humidity;BME280_pressure;Samples;Min_cycle;Max_cycle;Signal;HPM_P1;HPM_P2
2023/08/22 00:00:16;;;;;;;7.97;4.82;;;19.90;99.90;;;;;;5037108;28;20198;-91
2023/08/22 00:02:43;;;;;;;8.98;5.80;;;20.00;99.90;;;;;;5036944;28;20169;-91
2023/08/22 00:05:11;;;;;;;10.68;6.05;;;20.00;99.90;;;;;;5035838;28;20186;-91
2023/08/22 00:07:39;;;;;;;9.63;5.85;;;20.00;99.90;;;;;;5036862;28;20202;-91
2023/08/22 00:10:06;;;;;;;6.32;5.82;;;20.00;99.90;;;;;;5036818;28;20182;-89
2023/08/22 00:12:31;;;;;;;6.22;5.65;;;20.00;99.90;;;;;;5036702;28;20182;-89
2023/08/22 00:14:57;;;;;;;7.13;5.82;;;20.00;99.90;;;;;;5036777;28;20189;-89
2023/08/22 00:17:24;;;;;;;6.70;5.97;;;20.00;99.90;;;;;;5036337;28;20674;-89
2023/08/22 00:19:50;;;;;;;6.47;5.82;;;20.00;99.90;;;;;;5036423;28;20182;-89
2023/08/22 00:22:16;;;;;;;6.60;6.00;;;19.90;99.90;;;;;;5036762;28;20252;-89
2023/08/22 00:24:42;;;;;;;8.70;6.30;;;20.00;99.90;;;;;;5036109;28;20174;-89
2023/08/22 00:27:07;;;;;;;6.90;6.18;;;19.90;99.90;;;;;;5036268;28;20577;-88
2023/08/22 00:29:33;;;;;;;7.05;6.25;;;19.90;99.90;;;;;;5036136;28;20171;-88
2023/08/22 00:31:58;;;;;;;6.47;5.80;;;19.90;99.90;;;;;;5036544;28;20677;-88
2023/08/22 00:34:25;;;;;;;6.53;5.90;;;19.90;99.90;;;;;;5036656;28;20189;-88
2023/08/22 00:36:50;;;;;;;7.38;6.60;;;19.80;99.90;;;;;;5036836;28;20730;-88
2023/08/22 00:39:16;;;;;;;7.50;6.63;;;19.60;99.90;;;;;;5035955;28;20182;-88
2023/08/22 00:41:42;;;;;;;8.18;6.80;;;19.60;99.90;;;;;;5036121;28;20202;-88
2023/08/22 00:44:08;;;;;;;7.75;6.47;;;19.70;99.90;;;;;;5036284;28;20185;-88
2023/08/22 00:46:34;;;;;;;6.10;5.57;;;19.70;99.90;;;;;;5036097;28;20193;-88
2023/08/22 00:49:01;;;;;;;10.00;6.38;;;19.70;99.90;;;;;;5036554;28;20174;-88
2023/08/22 00:51:26;;;;;;;10.82;6.55;;;19.70;99.90;;;;;;5035790;28;20186;-89
2023/08/22 00:53:52;;;;;;;6.80;6.20;;;19.70;99.90;;;;;;5036074;28;20232;-88
2023/08/22 00:56:18;;;;;;;7.20;6.10;;;19.70;99.90;;;;;;5036408;28;20224;-88
2023/08/22 00:58:43;;;;;;;6.35;5.75;;;19.70;99.90;;;;;;5035807;28;20182;-88
2023/08/22 01:16:46;;;;;;;8.10;7.32;;;19.20;99.90;;;;;;5577598;23;20242;-82
2023/08/22 01:19:14;;;;;;;7.15;6.65;;;19.20;99.90;;;;;;4981106;28;20176;-82
2023/08/22 01:21:52;;;;;;;10.40;7.35;;;19.20;99.90;;;;;;4999260;28;20211;-82
2023/08/22 01:24:19;;;;;;;9.55;6.88;;;19.30;99.90;;;;;;4998789;28;20218;-82
2023/08/22 01:26:46;;;;;;;7.45;6.75;;;19.20;99.90;;;;;;5010452;28;20188;-82
2023/08/22 01:29:17;;;;;;;8.75;6.70;;;19.30;99.90;;;;;;5001393;28;20187;-82
2023/08/22 01:32:09;;;;;;;9.32;7.25;;;19.30;99.90;;;;;;5001565;28;20219;-82
2023/08/22 01:34:38;;;;;;;7.93;6.90;;;19.20;99.90;;;;;;5000549;28;20659;-82
2023/08/22 01:37:06;;;;;;;8.77;7.20;;;19.20;99.90;;;;;;5001521;28;20200;-82
2023/08/22 01:39:33;;;;;;;7.70;7.00;;;19.30;99.90;;;;;;5000634;28;20591;-82
2023/08/22 01:41:59;;;;;;;7.60;7.00;;;19.20;99.90;;;;;;5000989;28;20666;-82
2023/08/22 01:44:25;;;;;;;8.20;7.18;;;19.10;99.90;;;;;;5000985;28;20179;-82
2023/08/22 01:46:51;;;;;;;7.65;6.95;;;19.10;99.90;;;;;;5001328;28;20610;-82
2023/08/22 01:49:16;;;;;;;10.98;7.05;;;19.10;99.90;;;;;;5000392;28;20535;-82
2023/08/22 01:51:42;;;;;;;13.05;7.35;;;19.20;99.90;;;;;;5001401;28;20179;-82
2023/08/22 01:54:07;;;;;;;8.35;7.25;;;19.00;99.90;;;;;;5001204;28;20180;-82
2023/08/22 01:56:33;;;;;;;8.85;7.97;;;18.90;99.90;;;;;;5000651;28;20285;-82
2023/08/22 01:58:59;;;;;;;7.95;7.22;;;18.80;99.90;;;;;;5001370;28;20191;-82
2023/08/22 02:01:24;;;;;;;8.27;7.55;;;18.80;99.90;;;;;;5000803;28;20214;-82
2023/08/22 02:03:50;;;;;;;8.23;7.43;;;18.80;99.90;;;;;;4999977;28;20190;-82
2023/08/22 02:06:16;;;;;;;9.27;7.55;;;18.80;99.90;;;;;;5000927;28;20273;-82
2023/08/22 02:08:41;;;;;;;9.93;8.13;;;18.80;99.90;;;;;;5018302;28;20195;-82
2023/08/22 02:11:07;;;;;;;10.07;8.43;;;18.80;99.90;;;;;;5000643;28;20530;-82
2023/08/22 02:13:33;;;;;;;8.10;7.30;;;18.80;99.90;;;;;;5000672;28;20191;-82
2023/08/22 02:16:00;;;;;;;10.18;7.40;;;18.80;99.90;;;;;;5001116;28;20545;-82
2023/08/22 02:18:26;;;;;;;15.57;8.07;;;18.80;99.90;;;;;;5001169;28;20194;-82
2023/08/22 02:20:55;;;;;;;10.50;7.65;;;18.80;99.90;;;;;;5001598;28;20615;-82
2023/08/22 02:23:20;;;;;;;9.95;7.57;;;18.80;99.90;;;;;;5000278;28;20172;-82
2023/08/22 02:25:46;;;;;;;11.00;7.38;;;18.70;99.90;;;;;;5000175;28;20250;-82
2023/08/22 02:28:12;;;;;;;8.50;7.35;;;18.80;99.90;;;;;;5001381;28;20172;-82
2023/08/22 02:30:37;;;;;;;10.85;7.38;;;18.80;99.90;;;;;;5003711;28;20183;-82
2023/08/22 02:33:04;;;;;;;9.88;7.68;;;18.70;99.90;;;;;;5004431;28;20171;-82
2023/08/22 02:35:29;;;;;;;8.02;7.30;;;18.70;99.90;;;;;;5003677;28;20191;-82
2023/08/22 02:37:55;;;;;;;8.93;7.60;;;18.70;99.90;;;;;;5004450;28;20218;-82
2023/08/22 02:40:20;;;;;;;8.52;7.60;;;18.70;99.90;;;;;;5003361;28;20200;-82
2023/08/22 02:42:46;;;;;;;9.73;6.68;;;18.70;99.90;;;;;;5003497;28;20664;-83
2023/08/22 02:45:11;;;;;;;10.05;6.72;;;18.80;99.90;;;;;;5003378;28;20652;-83
2023/08/22 02:47:37;;;;;;;8.25;6.63;;;18.70;99.90;;;;;;5003788;28;20708;-83
2023/08/22 02:50:04;;;;;;;9.60;6.47;;;18.70;99.90;;;;;;5003048;28;20257;-83
2023/08/22 02:52:30;;;;;;;9.98;6.90;;;18.70;99.90;;;;;;5021410;28;20218;-83
2023/08/22 02:54:56;;;;;;;11.98;7.18;;;18.70;99.90;;;;;;5004026;28;20178;-82
2023/08/22 02:57:21;;;;;;;13.25;7.20;;;18.60;99.90;;;;;;5003617;28;20290;-82
2023/08/22 02:59:47;;;;;;;8.93;7.18;;;18.60;99.90;;;;;;5003095;28;20239;-82
2023/08/22 03:02:13;;;;;;;10.88;7.38;;;18.50;99.90;;;;;;5002797;28;20203;-82
2023/08/22 03:04:38;;;;;;;8.95;7.05;;;18.50;99.90;;;;;;5020881;28;20175;-82
2023/08/22 03:07:05;;;;;;;8.45;7.53;;;18.50;99.90;;;;;;5002926;28;20207;-82
2023/08/22 03:09:30;;;;;;;7.70;7.00;;;18.40;99.90;;;;;;5003240;28;20178;-82
2023/08/22 03:11:56;;;;;;;9.38;6.80;;;18.40;99.90;;;;;;5003379;28;20263;-82
2023/08/22 03:14:22;;;;;;;7.60;6.90;;;18.40;99.90;;;;;;5002923;28;20217;-82
2023/08/22 03:16:47;;;;;;;8.52;6.55;;;18.50;99.90;;;;;;5020706;28;20219;-82
2023/08/22 03:19:13;;;;;;;8.60;7.47;;;18.50;99.90;;;;;;5003722;28;20194;-82
2023/08/22 03:21:39;;;;;;;15.25;7.65;;;18.40;99.90;;;;;;5002716;28;20210;-82
2023/08/22 03:24:04;;;;;;;10.80;6.82;;;18.40;99.90;;;;;;5020715;28;20603;-82
2023/08/22 03:26:30;;;;;;;12.23;7.00;;;18.40;99.90;;;;;;5020430;28;20195;-82
2023/08/22 03:28:56;;;;;;;11.25;7.25;;;18.40;99.90;;;;;;5003460;28;20179;-82
2023/08/22 03:31:22;;;;;;;9.60;6.93;;;18.40;99.90;;;;;;5003491;28;20198;-82
2023/08/22 03:33:48;;;;;;;11.80;7.72;;;18.40;99.90;;;;;;5020317;28;20176;-82
2023/08/22 03:36:14;;;;;;;9.95;7.53;;;18.30;99.90;;;;;;5002950;28;20206;-82
2023/08/22 03:38:39;;;;;;;13.43;7.90;;;18.30;99.90;;;;;;5002890;28;20230;-82
2023/08/22 03:41:05;;;;;;;11.80;7.20;;;18.10;99.90;;;;;;5002844;28;20200;-82
2023/08/22 03:43:31;;;;;;;10.93;7.55;;;18.10;99.90;;;;;;5002818;28;20179;-82
2023/08/22 03:45:56;;;;;;;12.80;7.75;;;18.10;99.90;;;;;;5002797;28;20206;-82
2023/08/22 03:48:22;;;;;;;8.32;7.30;;;18.10;99.90;;;;;;5002194;28;20172;-82
2023/08/22 03:50:47;;;;;;;17.75;7.68;;;18.20;99.90;;;;;;5002944;28;20179;-82
2023/08/22 03:53:13;;;;;;;12.20;7.32;;;18.10;99.90;;;;;;5002374;28;20175;-82
2023/08/22 03:55:39;;;;;;;12.80;8.07;;;18.20;99.90;;;;;;5002639;28;20211;-82
2023/08/22 03:58:05;;;;;;;12.77;7.75;;;18.20;99.90;;;;;;5006440;28;20203;-82
2023/08/22 04:00:31;;;;;;;10.93;6.70;;;18.20;99.90;;;;;;5024637;28;20703;-82
2023/08/22 04:02:57;;;;;;;11.68;6.97;;;18.20;99.90;;;;;;5025298;28;20203;-82
2023/08/22 04:05:24;;;;;;;13.52;6.78;;;18.20;99.90;;;;;;5007247;28;20187;-82
2023/08/22 04:07:50;;;;;;;10.13;7.07;;;18.20;99.90;;;;;;5006848;28;20190;-82
2023/08/22 04:10:16;;;;;;;11.70;7.38;;;18.20;99.90;;;;;;5007349;28;20233;-82
2023/08/22 04:12:42;;;;;;;10.20;7.50;;;18.10;99.90;;;;;;5007553;28;20196;-82
2023/08/22 04:15:10;;;;;;;13.27;7.15;;;18.10;99.90;;;;;;5026358;28;20176;-82
2023/08/22 04:17:36;;;;;;;10.60;7.28;;;18.10;99.90;;;;;;5008995;28;20219;-82
2023/08/22 04:20:03;;;;;;;8.38;7.43;;;18.00;99.90;;;;;;5010061;28;20202;-82
2023/08/22 04:22:30;;;;;;;8.30;7.50;;;18.00;99.90;;;;;;5008904;28;20175;-82
2023/08/22 04:24:56;;;;;;;13.75;8.30;;;17.80;99.90;;;;;;5008823;28;20179;-82
2023/08/22 04:27:22;;;;;;;11.05;7.95;;;17.90;99.90;;;;;;5009131;28;20206;-82
2023/08/22 04:29:48;;;;;;;13.27;8.13;;;17.80;99.90;;;;;;5009656;28;20247;-82
2023/08/22 04:32:13;;;;;;;13.05;7.85;;;17.90;99.90;;;;;;5008373;28;20190;-83
2023/08/22 04:34:39;;;;;;;12.32;9.10;;;17.90;99.90;;;;;;5009414;28;20206;-82
2023/08/22 04:37:04;;;;;;;11.23;8.50;;;17.80;99.90;;;;;;5005454;28;20203;-82
2023/08/22 04:39:30;;;;;;;11.68;8.70;;;17.90;99.90;;;;;;5007422;28;20229;-82
2023/08/22 04:41:55;;;;;;;9.07;8.15;;;18.00;99.90;;;;;;5006230;28;20203;-82
2023/08/22 04:44:21;;;;;;;11.93;8.32;;;18.10;99.90;;;;;;5002265;28;20168;-82
2023/08/22 04:46:46;;;;;;;9.63;8.55;;;18.10;99.90;;;;;;4996199;28;20215;-82
2023/08/22 04:49:12;;;;;;;8.68;7.88;;;18.20;99.90;;;;;;5013181;28;20183;-82
2023/08/22 04:51:37;;;;;;;10.20;7.70;;;18.20;99.90;;;;;;4994319;28;20188;-82
2023/08/22 04:54:03;;;;;;;9.13;7.82;;;18.20;99.90;;;;;;5014189;28;20196;-82
2023/08/22 04:56:29;;;;;;;9.63;7.80;;;18.20;99.90;;;;;;5001610;28;20207;-82
2023/08/22 04:58:55;;;;;;;15.48;8.27;;;18.30;99.90;;;;;;5008920;28;20640;-82
2023/08/22 05:01:20;;;;;;;9.98;8.20;;;18.30;99.90;;;;;;5008455;28;20210;-82
2023/08/22 05:03:46;;;;;;;12.80;8.50;;;18.30;99.90;;;;;;5008950;28;20180;-82
2023/08/22 05:06:12;;;;;;;15.07;8.57;;;18.30;99.90;;;;;;5008582;28;20255;-83
2023/08/22 05:08:38;;;;;;;10.70;8.30;;;18.20;99.90;;;;;;5007799;28;20245;-82
2023/08/22 05:11:03;;;;;;;11.48;7.95;;;18.30;99.90;;;;;;5008428;28;20207;-82
2023/08/22 05:13:29;;;;;;;9.88;7.70;;;18.40;99.90;;;;;;5007856;28;20195;-82
2023/08/22 05:15:55;;;;;;;22.45;8.45;;;18.50;99.90;;;;;;5007959;28;20207;-82
2023/08/22 05:18:20;;;;;;;13.65;8.07;;;18.60;99.90;;;;;;5007076;28;20210;-82
2023/08/22 05:20:49;;;;;;;17.52;8.05;;;18.70;99.90;;;;;;5005251;28;20208;-82
2023/08/22 05:23:15;;;;;;;11.98;8.73;;;18.70;99.90;;;;;;5003793;28;20175;-82
2023/08/22 05:25:41;;;;;;;13.57;8.38;;;18.70;99.90;;;;;;5004062;28;20552;-82
2023/08/22 05:28:07;;;;;;;15.57;8.23;;;18.80;99.90;;;;;;5003909;28;20647;-82
2023/08/22 05:30:36;;;;;;;11.45;8.05;;;18.90;99.90;;;;;;5004194;28;20175;-82
2023/08/22 05:33:01;;;;;;;11.18;7.30;;;19.00;99.90;;;;;;5004177;28;20613;-82
2023/08/22 05:35:27;;;;;;;12.73;7.30;;;19.10;99.90;;;;;;5004175;28;20195;-82
2023/08/22 05:37:52;;;;;;;8.43;7.47;;;19.10;99.90;;;;;;5003853;28;20191;-82
2023/08/22 05:40:18;;;;;;;9.25;7.35;;;19.30;99.90;;;;;;5003778;28;20242;-82
2023/08/22 05:42:50;;;;;;;12.45;7.55;;;19.20;99.90;;;;;;4997538;28;20231;-82
2023/08/22 05:45:16;;;;;;;14.60;8.27;;;19.30;99.90;;;;;;4985713;28;20169;-83
2023/08/22 05:47:43;;;;;;;8.32;7.45;;;19.40;99.90;;;;;;5003094;28;20223;-82
2023/08/22 05:50:10;;;;;;;11.98;8.07;;;19.60;99.90;;;;;;5021455;28;20183;-82
2023/08/22 05:52:41;;;;;;;11.68;7.55;;;19.60;99.90;;;;;;5004697;28;20271;-82
2023/08/22 05:55:07;;;;;;;8.15;7.32;;;19.70;99.90;;;;;;5004394;28;20195;-82
2023/08/22 05:57:33;;;;;;;15.13;6.97;;;19.80;99.90;;;;;;5002920;28;20200;-82
2023/08/22 05:59:59;;;;;;;13.10;7.80;;;19.90;99.90;;;;;;5003947;28;20253;-83
2023/08/22 06:02:25;;;;;;;12.68;7.63;;;19.80;99.90;;;;;;5002794;28;20251;-82
2023/08/22 06:04:51;;;;;;;12.32;7.78;;;19.80;99.90;;;;;;5006990;28;20199;-82
2023/08/22 06:07:16;;;;;;;11.50;7.80;;;19.90;99.90;;;;;;5024792;28;20697;-81
2023/08/22 06:09:42;;;;;;;8.65;7.70;;;20.00;99.90;;;;;;4986729;28;20172;-82
2023/08/22 06:12:08;;;;;;;12.98;7.95;;;20.10;99.90;;;;;;4987624;28;20184;-82
2023/08/22 06:14:33;;;;;;;10.07;7.80;;;20.20;99.90;;;;;;4986706;28;20641;-82
2023/08/22 06:16:59;;;;;;;8.30;7.40;;;20.30;99.90;;;;;;4986667;28;20215;-82
2023/08/22 06:19:25;;;;;;;10.82;7.82;;;20.50;99.90;;;;;;4987151;28;20188;-82
2023/08/22 06:21:50;;;;;;;12.32;7.60;;;20.60;99.90;;;;;;4987028;28;20270;-82
2023/08/22 06:24:16;;;;;;;14.35;7.30;;;20.70;99.90;;;;;;4987475;28;20184;-82
2023/08/22 06:26:42;;;;;;;10.02;7.60;;;20.80;99.90;;;;;;4987152;28;20208;-82
2023/08/22 06:29:08;;;;;;;14.98;8.43;;;20.90;99.90;;;;;;4986257;28;20186;-82
2023/08/22 06:31:34;;;;;;;15.73;8.23;;;21.00;99.90;;;;;;4986438;28;20181;-82
2023/08/22 06:34:00;;;;;;;10.98;8.32;;;21.00;99.90;;;;;;4986681;28;20191;-83
2023/08/22 06:36:25;;;;;;;17.45;8.60;;;21.10;99.90;;;;;;5001512;28;20195;-82
2023/08/22 06:38:52;;;;;;;12.43;7.88;;;21.20;99.90;;;;;;5005139;28;20268;-82
2023/08/22 06:41:18;;;;;;;12.32;7.40;;;21.40;99.90;;;;;;5005140;28;20200;-82
2023/08/22 06:43:44;;;;;;;18.58;8.25;;;21.50;99.90;;;;;;4994091;28;20180;-82
2023/08/22 06:46:09;;;;;;;12.93;8.45;;;21.60;99.90;;;;;;4986532;28;20259;-82
2023/08/22 06:48:35;;;;;;;11.68;7.72;;;21.60;99.90;;;;;;4986418;28;20279;-82
2023/08/22 06:51:00;;;;;;;16.50;7.97;;;21.80;99.90;;;;;;4985743;28;20184;-82
2023/08/22 06:53:26;;;;;;;13.52;8.30;;;21.90;99.90;;;;;;4984964;28;20184;-82
2023/08/22 06:55:54;;;;;;;11.40;7.78;;;22.10;99.90;;;;;;4985929;28;20720;-82
2023/08/22 06:58:20;;;;;;;9.55;8.30;;;22.20;99.90;;;;;;4985176;28;20176;-81
2023/08/22 07:00:45;;;;;;;9.18;8.32;;;22.30;99.90;;;;;;4985218;28;20295;-83
2023/08/22 07:03:11;;;;;;;13.15;8.25;;;22.50;99.90;;;;;;4985388;28;20176;-82
2023/08/22 07:05:37;;;;;;;15.20;8.48;;;22.60;99.90;;;;;;4985392;28;20268;-84
2023/08/22 07:08:03;;;;;;;10.93;7.82;;;22.60;99.90;;;;;;4985136;28;20175;-82
2023/08/22 07:10:28;;;;;;;16.02;8.93;;;22.70;99.90;;;;;;4985489;28;20234;-82
2023/08/22 07:12:54;;;;;;;19.92;8.00;;;22.80;99.90;;;;;;4985182;28;20176;-82
2023/08/22 07:15:20;;;;;;;22.08;8.60;;;22.90;99.90;;;;;;4983946;28;20188;-82
2023/08/22 07:17:46;;;;;;;11.88;8.38;;;23.00;99.90;;;;;;4985711;28;20266;-82
2023/08/22 07:20:16;;;;;;;11.13;8.27;;;23.10;99.90;;;;;;4984905;28;20188;-82
2023/08/22 07:22:41;;;;;;;10.27;8.25;;;23.10;99.90;;;;;;4986092;28;20179;-82
2023/08/22 07:25:07;;;;;;;12.85;9.32;;;23.20;99.90;;;;;;4987825;28;20271;-82
2023/08/22 07:27:33;;;;;;;17.35;8.85;;;23.30;99.90;;;;;;4984527;28;20204;-82
2023/08/22 07:29:58;;;;;;;14.35;8.55;;;23.40;99.90;;;;;;4982798;28;20227;-82
2023/08/22 07:32:24;;;;;;;11.43;9.30;;;23.60;99.90;;;;;;4981021;28;20712;-81
2023/08/22 07:34:49;;;;;;;10.38;8.00;;;23.60;99.90;;;;;;4981655;28;20180;-81
2023/08/22 07:37:15;;;;;;;12.23;8.25;;;23.80;99.90;;;;;;4981968;28;20254;-81
2023/08/22 07:39:42;;;;;;;10.77;8.27;;;23.90;99.90;;;;;;4980738;28;20176;-81
2023/08/22 07:42:08;;;;;;;12.07;8.45;;;24.00;99.90;;;;;;4981274;28;20203;-81
2023/08/22 07:44:34;;;;;;;14.05;8.43;;;24.10;99.90;;;;;;4981760;28;20180;-81
2023/08/22 07:46:59;;;;;;;12.20;7.63;;;24.30;99.90;;;;;;4981020;28;20227;-82
2023/08/22 07:49:26;;;;;;;11.68;7.90;;;24.40;99.90;;;;;;4982173;28;20649;-82
2023/08/22 07:51:52;;;;;;;11.20;7.60;;;24.40;99.90;;;;;;4981227;28;20176;-82
2023/08/22 07:54:17;;;;;;;11.60;7.18;;;24.50;99.90;;;;;;4982481;28;20555;-83
2023/08/22 07:56:44;;;;;;;11.57;6.75;;;24.60;99.90;;;;;;4982077;28;20203;-82
2023/08/22 07:59:12;;;;;;;8.32;6.20;;;24.70;99.90;;;;;;4982525;28;20234;-82
2023/08/22 08:01:37;;;;;;;9.07;6.53;;;24.80;99.90;;;;;;4983728;28;20212;-82
2023/08/22 08:04:03;;;;;;;8.75;6.25;;;24.90;99.90;;;;;;4982716;28;20183;-82
2023/08/22 08:06:36;;;;;;;10.50;6.20;;;25.00;99.90;;;;;;4981718;28;20192;-82
2023/08/22 08:09:03;;;;;;;11.52;6.85;;;25.10;99.90;;;;;;4999821;28;20173;-82
2023/08/22 08:11:29;;;;;;;9.02;6.40;;;25.20;99.90;;;;;;4999822;28;20316;-82
2023/08/22 08:13:55;;;;;;;9.80;5.97;;;25.30;99.90;;;;;;4982195;28;20637;-82
2023/08/22 08:16:21;;;;;;;11.20;7.10;;;25.30;99.90;;;;;;4981643;28;20212;-82
2023/08/22 08:18:46;;;;;;;9.90;7.03;;;25.40;99.90;;;;;;4980508;28;20267;-82
2023/08/22 08:21:12;;;;;;;6.60;6.00;;;25.50;99.90;;;;;;4998886;28;20702;-82
2023/08/22 08:23:46;;;;;;;16.33;6.10;;;25.60;99.90;;;;;;4981126;28;20180;-82
2023/08/22 08:26:12;;;;;;;18.60;6.72;;;25.70;99.90;;;;;;4998391;28;20192;-82
2023/08/22 08:28:38;;;;;;;12.40;6.80;;;25.80;99.90;;;;;;4981554;28;20653;-82
2023/08/22 08:31:04;;;;;;;10.98;6.00;;;25.90;99.90;;;;;;4981815;28;20191;-83
2023/08/22 08:33:30;;;;;;;6.90;5.72;;;25.90;99.90;;;;;;4997602;28;20191;-83
2023/08/22 08:35:56;;;;;;;13.45;6.47;;;26.00;99.90;;;;;;4981976;28;20223;-82
2023/08/22 08:38:21;;;;;;;8.45;5.65;;;26.00;99.90;;;;;;4981313;28;20652;-82
2023/08/22 08:40:48;;;;;;;6.15;5.65;;;26.10;99.90;;;;;;4981421;28;20278;-82
2023/08/22 08:43:13;;;;;;;6.88;6.18;;;26.10;99.90;;;;;;4981281;28;20643;-82
2023/08/22 08:45:42;;;;;;;6.90;6.20;;;26.10;99.90;;;;;;4981088;28;20222;-82
2023/08/22 08:48:08;;;;;;;7.75;5.45;;;26.30;99.90;;;;;;4980293;28;20161;-82
2023/08/22 08:50:36;;;;;;;8.50;6.13;;;26.30;99.90;;;;;;4981339;28;20182;-82
2023/08/22 08:53:08;;;;;;;7.82;5.63;;;26.40;99.90;;;;;;4981031;28;20266;-82
2023/08/22 08:55:35;;;;;;;9.48;5.40;;;26.40;99.90;;;;;;4999202;28;20160;-82
2023/08/22 08:58:01;;;;;;;7.35;5.43;;;26.50;99.90;;;;;;4998814;28;20235;-82
2023/08/22 09:00:34;;;;;;;9.50;5.90;;;26.60;99.90;;;;;;4981624;28;20204;-82
2023/08/22 09:02:59;;;;;;;8.57;5.38;;;26.80;99.90;;;;;;4980047;28;20179;-82
2023/08/22 09:05:28;;;;;;;9.95;4.78;;;26.90;99.90;;;;;;4979722;28;20172;-82
2023/08/22 09:07:53;;;;;;;7.03;5.13;;;27.10;99.90;;;;;;4981659;28;20176;-82
2023/08/22 09:10:35;;;;;;;6.97;4.70;;;27.10;99.90;;;;;;4998858;28;20540;-82
2023/08/22 09:13:04;;;;;;;9.13;4.40;;;27.10;99.90;;;;;;4981242;28;20188;-82
2023/08/22 09:15:30;;;;;;;4.75;4.15;;;27.30;99.90;;;;;;4995196;28;20179;-82
2023/08/22 09:17:57;;;;;;;6.38;4.60;;;27.30;99.90;;;;;;5000610;28;20206;-83
2023/08/22 09:20:22;;;;;;;6.28;4.50;;;27.30;99.90;;;;;;5000534;28;20183;-82
2023/08/22 09:22:48;;;;;;;9.80;4.70;;;27.20;99.90;;;;;;5000086;28;20171;-82
2023/08/22 09:25:14;;;;;;;9.30;4.35;;;27.30;99.90;;;;;;5000839;28;20198;-82
2023/08/22 09:27:40;;;;;;;6.20;4.97;;;27.50;99.90;;;;;;4999938;28;20298;-82
2023/08/22 09:30:06;;;;;;;6.28;4.80;;;27.60;99.90;;;;;;4994427;28;20185;-82
2023/08/22 09:32:32;;;;;;;7.25;5.13;;;27.90;99.90;;;;;;4980999;28;20172;-82
2023/08/22 09:35:11;;;;;;;7.00;4.75;;;27.90;99.90;;;;;;4980021;28;20250;-81
2023/08/22 09:37:37;;;;;;;4.95;4.47;;;27.90;99.90;;;;;;4982818;28;20231;-82
2023/08/22 09:40:08;;;;;;;5.03;4.45;;;28.10;99.80;;;;;;4984018;28;20670;-82
2023/08/22 09:42:37;;;;;;;7.22;4.40;;;28.20;98.40;;;;;;4985066;28;20237;-82
2023/08/22 09:45:04;;;;;;;5.97;4.68;;;28.30;99.10;;;;;;4984451;28;20214;-82
2023/08/22 09:47:31;;;;;;;9.02;4.15;;;28.40;98.40;;;;;;4993989;28;20206;-82
2023/08/22 09:50:00;;;;;;;6.63;4.30;;;28.50;99.10;;;;;;5004366;28;20178;-82
2023/08/22 09:52:26;;;;;;;9.73;4.60;;;28.30;97.90;;;;;;5004034;28;20183;-82
2023/08/22 09:54:55;;;;;;;9.25;4.57;;;28.40;98.10;;;;;;5021178;28;20181;-82
2023/08/22 09:57:23;;;;;;;6.45;4.22;;;28.70;97.30;;;;;;5003649;28;20234;-82
2023/08/22 09:59:51;;;;;;;8.02;4.50;;;29.00;96.60;;;;;;5003561;28;20207;-82
2023/08/22 10:02:21;;;;;;;4.55;4.15;;;29.20;96.60;;;;;;5003588;28;20202;-82
2023/08/22 10:04:47;;;;;;;4.90;4.50;;;29.20;96.00;;;;;;5003904;28;20174;-82
2023/08/22 10:07:13;;;;;;;5.38;4.45;;;29.40;95.70;;;;;;5002373;28;20667;-82
2023/08/22 10:09:40;;;;;;;5.03;4.53;;;29.20;95.80;;;;;;5004013;28;20175;-82
2023/08/22 10:12:09;;;;;;;10.65;4.63;;;29.30;96.20;;;;;;5003282;28;20251;-83
2023/08/22 10:14:45;;;;;;;9.60;4.63;;;29.10;96.10;;;;;;5004299;28;20183;-82
2023/08/22 10:17:13;;;;;;;10.75;4.90;;;28.90;96.10;;;;;;5003546;28;20221;-82
2023/08/22 10:19:38;;;;;;;7.93;4.80;;;28.90;96.00;;;;;;5004533;28;20233;-82
2023/08/22 10:22:12;;;;;;;6.90;4.88;;;29.00;96.10;;;;;;5003482;28;20206;-82
2023/08/22 10:24:38;;;;;;;7.80;4.78;;;29.40;96.10;;;;;;5003783;28;20167;-82
2023/08/22 10:27:10;;;;;;;5.28;4.60;;;29.50;95.00;;;;;;5004145;28;20191;-85
2023/08/22 10:29:41;;;;;;;5.85;4.80;;;29.80;94.80;;;;;;5003844;28;20560;-83
2023/08/22 10:32:06;;;;;;;7.05;4.45;;;30.00;94.10;;;;;;5002316;28;20187;-82
2023/08/22 10:34:38;;;;;;;7.55;5.13;;;30.10;94.00;;;;;;5005434;28;20179;-83
2023/08/22 10:37:04;;;;;;;4.85;4.43;;;30.10;93.80;;;;;;5021602;28;20198;-83
2023/08/22 10:39:38;;;;;;;4.78;4.38;;;29.80;94.10;;;;;;5020848;28;20202;-82
2023/08/22 10:42:27;;;;;;;7.35;5.40;;;29.40;94.10;;;;;;5003672;28;20210;-82
2023/08/22 10:44:57;;;;;;;8.55;5.35;;;29.40;96.00;;;;;;5002922;28;20159;-83
2023/08/22 10:47:24;;;;;;;5.30;4.80;;;29.50;96.20;;;;;;5002846;28;20195;-82
2023/08/22 10:49:52;;;;;;;5.80;5.15;;;29.50;95.30;;;;;;5001810;28;20659;-82
2023/08/22 10:52:23;;;;;;;5.63;4.97;;;29.60;95.30;;;;;;5002020;28;20186;-82
2023/08/22 10:55:11;;;;;;;9.40;5.30;;;29.60;95.20;;;;;;5001886;28;20174;-82
2023/08/22 10:57:47;;;;;;;5.07;4.55;;;29.60;94.90;;;;;;5002182;28;20206;-82
2023/08/22 11:00:21;;;;;;;5.47;4.97;;;29.20;94.60;;;;;;5019738;28;20167;-82
2023/08/22 11:02:51;;;;;;;5.15;4.63;;;29.20;94.50;;;;;;5019598;28;20170;-82
2023/08/22 11:05:17;;;;;;;7.65;5.32;;;29.40;94.90;;;;;;5002965;28;20206;-82
2023/08/22 11:07:48;;;;;;;13.07;5.10;;;29.20;94.60;;;;;;5002635;28;20195;-83
2023/08/22 11:10:24;;;;;;;8.20;4.68;;;29.00;95.50;;;;;;5016823;28;20244;-82
2023/08/22 11:12:53;;;;;;;6.95;4.85;;;28.80;95.30;;;;;;5021449;28;20209;-82
2023/08/22 11:15:19;;;;;;;8.05;4.55;;;29.00;95.80;;;;;;5038898;28;20155;-82
2023/08/22 11:17:50;;;;;;;8.35;4.30;;;29.10;94.90;;;;;;5020327;28;20236;-82
2023/08/22 11:20:17;;;;;;;5.30;4.30;;;29.30;94.10;;;;;;5021450;28;20165;-82
2023/08/22 11:22:44;;;;;;;5.40;4.18;;;29.30;94.40;;;;;;5021343;28;20213;-82
2023/08/22 11:25:11;;;;;;;7.25;4.13;;;29.40;94.30;;;;;;5020738;28;20181;-82
2023/08/22 11:27:38;;;;;;;6.38;3.70;;;29.20;93.30;;;;;;5019957;28;20198;-82
2023/08/22 11:30:05;;;;;;;7.13;3.65;;;29.40;92.60;;;;;;5039516;28;20170;-82
2023/08/22 11:32:34;;;;;;;7.40;3.38;;;29.60;92.70;;;;;;5021869;28;20647;-82
2023/08/22 11:35:04;;;;;;;6.15;3.20;;;29.30;90.80;;;;;;5021189;28;20175;-82
2023/08/22 11:37:34;;;;;;;7.00;3.20;;;29.20;90.50;;;;;;5021017;28;20314;-82
2023/08/22 11:40:01;;;;;;;4.22;2.80;;;28.90;88.90;;;;;;5020603;28;20196;-82
2023/08/22 11:42:30;;;;;;;5.32;2.75;;;28.90;87.30;;;;;;5021390;28;20232;-82
2023/08/22 11:45:13;;;;;;;4.72;2.72;;;28.90;83.30;;;;;;5020823;28;20227;-82
2023/08/22 11:47:49;;;;;;;5.65;3.20;;;29.00;83.30;;;;;;5020928;28;20200;-82
2023/08/22 11:50:25;;;;;;;3.05;2.83;;;29.10;86.20;;;;;;5020401;28;20206;-82
2023/08/22 11:52:54;;;;;;;4.60;2.95;;;29.20;86.40;;;;;;5019362;28;20638;-82
2023/08/22 11:55:27;;;;;;;11.27;3.03;;;29.40;86.50;;;;;;5020796;28;20555;-82
2023/08/22 11:58:10;;;;;;;6.32;3.15;;;29.50;87.80;;;;;;5020502;28;20162;-82
2023/08/22 12:00:36;;;;;;;6.45;3.00;;;29.60;88.20;;;;;;5020049;28;20228;-82
2023/08/22 12:03:05;;;;;;;5.15;2.80;;;29.70;86.10;;;;;;5022068;28;20639;-81
2023/08/22 12:05:34;;;;;;;4.57;2.90;;;29.70;76.70;;;;;;5020654;28;20182;-82
2023/08/22 12:08:05;;;;;;;3.00;2.60;;;29.70;77.20;;;;;;5020321;28;20685;-82
2023/08/22 12:10:41;;;;;;;4.63;3.10;;;29.70;78.50;;;;;;5020862;28;20247;-82
2023/08/22 12:13:08;;;;;;;6.65;3.17;;;29.80;79.30;;;;;;5020393;28;20208;-82
2023/08/22 12:15:34;;;;;;;4.78;3.17;;;29.90;79.50;;;;;;5019973;28;20289;-82
2023/08/22 12:18:18;;;;;;;6.43;2.88;;;29.90;78.80;;;;;;5019132;28;20189;-82
2023/08/22 12:20:46;;;;;;;3.90;3.20;;;29.90;79.00;;;;;;5019175;28;20666;-81
2023/08/22 12:23:13;;;;;;;3.72;3.10;;;30.00;78.70;;;;;;5019643;28;20182;-82
2023/08/22 12:25:43;;;;;;;3.00;2.70;;;30.00;78.10;;;;;;5018693;28;20209;-82
2023/08/22 12:28:10;;;;;;;4.05;2.97;;;29.90;80.10;;;;;;5018993;28;20181;-82
2023/08/22 12:30:37;;;;;;;3.42;3.03;;;29.90;77.40;;;;;;5019886;28;20593;-82
2023/08/22 12:33:04;;;;;;;5.82;3.13;;;29.70;78.70;;;;;;5036778;28;20170;-82
2023/08/22 12:35:32;;;;;;;3.40;3.10;;;29.60;79.90;;;;;;5013453;28;20198;-81
2023/08/22 12:37:59;;;;;;;7.43;3.53;;;29.60;80.40;;;;;;4980441;28;20234;-81
2023/08/22 12:40:24;;;;;;;11.30;3.60;;;29.60;79.20;;;;;;4980285;28;20266;-82
2023/08/22 12:42:50;;;;;;;8.52;3.38;;;29.60;77.60;;;;;;4997964;28;20202;-82
2023/08/22 12:45:16;;;;;;;3.65;3.17;;;29.60;75.90;;;;;;4980235;28;20229;-82
2023/08/22 12:47:42;;;;;;;3.72;3.08;;;29.60;76.70;;;;;;4964450;28;20687;-82
2023/08/22 12:50:09;;;;;;;6.15;3.53;;;29.50;75.60;;;;;;4979824;28;20262;-82
2023/08/22 12:52:35;;;;;;;5.00;3.25;;;29.40;75.70;;;;;;4980470;28;20187;-82
2023/08/22 12:55:02;;;;;;;4.88;2.95;;;29.50;76.00;;;;;;4997774;28;20184;-81
2023/08/22 12:57:28;;;;;;;6.07;3.03;;;29.50;73.70;;;;;;4980104;28;20196;-82